This is the latest recevied weather packets stored in our database for station/object W5HKR. If no packets are shown the sender has not sent any weather packets the latest 1 day(s).
| Time | Temp. | Humidity | Pressure | Rain* | Wind** | Luminosity | Snow |
|---|---|---|---|---|---|---|---|
| 1778018006 | 18.33° C | 91% | 990.6 hPa | 0 mm | 6.71 m/s, 273° | - | - |
| 1778017705 | 18.33° C | 91% | 990.6 hPa | 0 mm | 6.26 m/s, 270° | - | - |
| 1778017558 | 18.33° C | 91% | 990.6 hPa | 0 mm | 6.26 m/s, 275° | - | - |
| 1778017406 | 30.56° C | 64% | 977.6 hPa | 0 mm | 6.71 m/s, 268° | - | - |
| 1778017106 | 31.67° C | 62% | 978 hPa | 0 mm | 5.36 m/s, 271° | - | - |
| 1778016805 | 18.33° C | 91% | 990.6 hPa | 0 mm | 6.71 m/s, 270° | - | - |
| 1778016477 | 31.11° C | 62% | 978 hPa | 0 mm | 6.71 m/s, 272° | - | - |
| 1778016206 | 18.33° C | 91% | 990.6 hPa | 0 mm | 6.71 m/s, 266° | - | - |
| 1778015905 | 31.11° C | 64% | 978.2 hPa | 0 mm | 6.71 m/s, 268° | - | - |
| 1778015606 | 31.11° C | 66% | 978.2 hPa | 0 mm | 6.71 m/s, 267° | - | - |
| 1778015396 | 30.56° C | 64% | 978.3 hPa | 0 mm | 5.81 m/s, 268° | - | - |
| 1778015306 | 31.11° C | 64% | 978.2 hPa | 0 mm | 6.71 m/s, 276° | - | - |
| 1778015005 | 30.56° C | 65% | 978.3 hPa | 0 mm | 5.81 m/s, 270° | - | - |
| 1778014705 | 30.56° C | 65% | 978.7 hPa | 0 mm | 6.71 m/s, 270° | - | - |
| 1778014405 | 30.56° C | 65% | 978.7 hPa | 0 mm | 6.26 m/s, 268° | - | - |
| 1778014316 | 30.56° C | 66% | 978.7 hPa | 0 mm | 6.26 m/s, 269° | - | - |
| 1778014105 | 18.33° C | 91% | 990.6 hPa | 0 mm | 5.81 m/s, 269° | - | - |
| 1778013506 | 30.56° C | 64% | 978.9 hPa | 0 mm | 6.71 m/s, 266° | - | - |
| 1778013237 | 18.33° C | 91% | 990.6 hPa | 0 mm | 6.71 m/s, 274° | - | - |
| 1778013205 | 18.33° C | 91% | 990.6 hPa | 0 mm | 6.71 m/s, 271° | - | - |
| 1778012907 | 30.56° C | 65% | 978.9 hPa | 0 mm | 6.71 m/s, 267° | - | - |
| 1778012605 | 30° C | 65% | 979 hPa | 0 mm | 6.71 m/s, 269° | - | - |
| 1778012308 | 30.56° C | 65% | 979.3 hPa | 0 mm | 7.15 m/s, 271° | - | - |
| 1778012156 | 18.33° C | 91% | 990.6 hPa | 0 mm | 7.15 m/s, 274° | - | - |
| 1778012005 | 18.33° C | 91% | 990.6 hPa | 0 mm | 6.26 m/s, 272° | - | - |
* Rain latest hour (hover to see other rain measurements)
** Current wind speed in m/s (hover to see current wind gust speed)